createdAt,value
2019-05-07T00:00:35.663Z,951.70
2019-05-07T00:01:35.648Z,951.73
2019-05-07T00:02:35.650Z,951.71
2019-05-07T00:03:35.667Z,951.71
2019-05-07T00:04:35.623Z,951.68
2019-05-07T00:05:35.593Z,951.71
2019-05-07T00:06:35.598Z,951.71
2019-05-07T00:07:35.619Z,951.65
2019-05-07T00:08:35.561Z,951.61
2019-05-07T00:09:35.551Z,951.68
2019-05-07T00:10:35.637Z,951.63
2019-05-07T00:11:35.551Z,951.63
2019-05-07T00:12:35.521Z,951.59
2019-05-07T00:13:35.547Z,951.63
2019-05-07T00:14:35.498Z,951.61
2019-05-07T00:15:35.481Z,951.66
2019-05-07T00:16:35.483Z,951.63
2019-05-07T00:17:35.508Z,951.61
2019-05-07T00:18:35.456Z,951.54
2019-05-07T00:19:35.488Z,951.64
2019-05-07T00:20:35.424Z,951.59
2019-05-07T00:21:35.423Z,951.55
2019-05-07T00:22:35.418Z,951.55
2019-05-07T00:23:35.402Z,951.54
2019-05-07T00:24:35.384Z,951.53
2019-05-07T00:25:35.394Z,951.61
2019-05-07T00:26:35.361Z,951.60
2019-05-07T00:27:35.348Z,951.59
2019-05-07T00:28:35.392Z,951.61
2019-05-07T00:29:35.334Z,951.57
2019-05-07T00:30:35.354Z,951.62
2019-05-07T00:31:35.359Z,951.63
2019-05-07T00:32:35.300Z,951.61
2019-05-07T00:33:35.290Z,951.60
2019-05-07T00:34:35.281Z,951.63
2019-05-07T00:35:35.257Z,951.60
2019-05-07T00:36:35.303Z,951.67
2019-05-07T00:37:35.274Z,951.63
2019-05-07T00:38:35.229Z,951.62
2019-05-07T00:39:35.219Z,951.57
2019-05-07T00:40:35.217Z,951.55
2019-05-07T00:41:35.224Z,951.57
2019-05-07T00:42:35.207Z,951.56
2019-05-07T00:43:35.168Z,951.58
2019-05-07T00:44:35.164Z,951.56
2019-05-07T00:45:35.177Z,951.54
2019-05-07T00:46:35.155Z,951.54
2019-05-07T00:47:35.129Z,951.53
2019-05-07T00:48:35.128Z,951.58
2019-05-07T00:49:35.106Z,951.53
2019-05-07T00:50:35.096Z,951.52
2019-05-07T00:51:35.121Z,951.56
2019-05-07T00:52:35.085Z,951.54
2019-05-07T00:53:35.066Z,951.55
2019-05-07T00:54:35.043Z,951.52
2019-05-07T00:55:35.044Z,951.55
2019-05-07T00:56:35.031Z,951.58
2019-05-07T00:57:35.061Z,951.59
2019-05-07T00:58:35.021Z,951.59
2019-05-07T00:59:35.001Z,951.61
2019-05-07T01:00:34.972Z,951.60
2019-05-07T01:01:35.005Z,951.55
2019-05-07T01:02:34.965Z,951.55
2019-05-07T01:03:34.979Z,951.56
2019-05-07T01:04:34.963Z,951.57
2019-05-07T01:05:34.936Z,951.56
2019-05-07T01:06:34.920Z,951.56
2019-05-07T01:07:34.940Z,951.56
2019-05-07T01:08:34.900Z,951.54
2019-05-07T01:09:34.929Z,951.56
2019-05-07T01:10:34.882Z,951.51
2019-05-07T01:11:34.857Z,951.54
2019-05-07T01:12:34.849Z,951.57
2019-05-07T01:13:34.862Z,951.56
2019-05-07T01:14:34.832Z,951.53
2019-05-07T01:15:34.932Z,951.55
2019-05-07T01:16:34.808Z,951.53
2019-05-07T01:17:34.783Z,951.53
2019-05-07T01:18:34.838Z,951.51
2019-05-07T01:19:34.773Z,951.51
2019-05-07T01:20:34.748Z,951.54
2019-05-07T01:21:34.768Z,951.52
2019-05-07T01:22:34.792Z,951.52
2019-05-07T01:23:34.730Z,951.50
2019-05-07T01:24:34.719Z,951.49
2019-05-07T01:25:34.696Z,951.51
2019-05-07T01:26:34.752Z,951.51
2019-05-07T01:27:34.677Z,951.48
2019-05-07T01:28:34.675Z,951.47
2019-05-07T01:29:34.657Z,951.51
2019-05-07T01:30:34.637Z,951.53
2019-05-07T01:31:34.627Z,951.50
2019-05-07T01:32:34.647Z,951.48
2019-05-07T01:33:34.653Z,951.49
2019-05-07T01:34:34.591Z,951.52
2019-05-07T01:35:34.625Z,951.44
2019-05-07T01:36:34.572Z,951.45
2019-05-07T01:37:34.569Z,951.47
2019-05-07T01:38:34.562Z,951.45
2019-05-07T01:39:34.544Z,951.48
2019-05-07T01:40:34.535Z,951.43
2019-05-07T01:41:34.522Z,951.45
2019-05-07T01:42:36.573Z,951.44
2019-05-07T01:43:34.529Z,951.45
2019-05-07T01:44:34.483Z,951.47
2019-05-07T01:45:45.362Z,951.45
2019-05-07T01:46:34.468Z,951.46
2019-05-07T01:47:34.451Z,951.49
2019-05-07T01:48:34.470Z,951.48
2019-05-07T01:49:34.473Z,951.44
2019-05-07T01:50:34.408Z,951.42
2019-05-07T01:51:34.399Z,951.45
2019-05-07T01:52:34.408Z,951.41
2019-05-07T01:53:34.386Z,951.44
2019-05-07T01:54:34.386Z,951.46
2019-05-07T01:55:34.389Z,951.48
2019-05-07T01:56:34.350Z,951.46
2019-05-07T01:57:34.331Z,951.39
2019-05-07T01:58:34.333Z,951.43
2019-05-07T01:59:34.317Z,951.44
2019-05-07T02:00:34.393Z,951.48
2019-05-07T02:01:35.829Z,951.44
2019-05-07T02:02:34.267Z,951.46
2019-05-07T02:03:34.269Z,951.45
2019-05-07T02:04:34.326Z,951.45
2019-05-07T02:05:34.255Z,951.40
2019-05-07T02:06:34.249Z,951.46
2019-05-07T02:07:34.295Z,951.43
2019-05-07T02:08:34.208Z,951.44
2019-05-07T02:09:34.216Z,951.45
2019-05-07T02:10:34.214Z,951.43
2019-05-07T02:11:34.204Z,951.40
2019-05-07T02:12:34.171Z,951.42
2019-05-07T02:13:34.154Z,951.38
2019-05-07T02:14:34.215Z,951.41
2019-05-07T02:15:34.170Z,951.41
2019-05-07T02:16:34.221Z,951.40
2019-05-07T02:17:34.146Z,951.42
2019-05-07T02:18:34.093Z,951.42
2019-05-07T02:19:34.091Z,951.43
2019-05-07T02:20:34.130Z,951.41
2019-05-07T02:21:34.077Z,951.41
2019-05-07T02:22:34.094Z,951.37
2019-05-07T02:23:34.059Z,951.43
2019-05-07T02:24:34.130Z,951.41
2019-05-07T02:25:34.091Z,951.42
2019-05-07T02:26:34.017Z,951.41
2019-05-07T02:27:34.010Z,951.42
2019-05-07T02:28:34.024Z,951.43
2019-05-07T02:29:33.974Z,951.44
2019-05-07T02:30:35.268Z,951.40
2019-05-07T02:31:34.077Z,951.41
2019-05-07T02:32:34.023Z,951.42
2019-05-07T02:33:35.041Z,951.40
2019-05-07T02:34:34.535Z,951.40
2019-05-07T02:35:33.946Z,951.39
2019-05-07T02:36:34.261Z,951.38
2019-05-07T02:37:47.031Z,951.38
2019-05-07T02:38:34.910Z,951.38
2019-05-07T02:39:33.873Z,951.42
2019-05-07T02:40:34.201Z,951.39
2019-05-07T02:41:33.842Z,951.37
2019-05-07T02:42:33.896Z,951.37
2019-05-07T02:43:34.031Z,951.40
2019-05-07T02:44:34.570Z,951.42
2019-05-07T02:45:33.917Z,951.40
2019-05-07T02:46:36.373Z,951.38
2019-05-07T02:47:34.434Z,951.36
2019-05-07T02:48:33.813Z,951.38
2019-05-07T02:49:33.750Z,951.33
2019-05-07T02:50:33.765Z,951.36
2019-05-07T02:51:33.848Z,951.34
2019-05-07T02:52:33.708Z,951.31
2019-05-07T02:53:34.009Z,951.33
2019-05-07T02:54:33.700Z,951.33
2019-05-07T02:55:33.896Z,951.36
2019-05-07T02:56:33.744Z,951.34
2019-05-07T02:57:34.326Z,951.35
2019-05-07T02:58:33.668Z,951.31
2019-05-07T02:59:33.946Z,951.34
2019-05-07T03:00:33.787Z,951.30
2019-05-07T03:01:34.417Z,951.33
2019-05-07T03:02:33.607Z,951.34
2019-05-07T03:03:33.808Z,951.33
2019-05-07T03:04:33.582Z,951.30
2019-05-07T03:05:34.998Z,951.27
2019-05-07T03:06:34.126Z,951.30
2019-05-07T03:07:33.880Z,951.36
2019-05-07T03:08:33.592Z,951.30
2019-05-07T03:09:33.544Z,951.30
2019-05-07T03:10:34.196Z,951.29
2019-05-07T03:11:34.182Z,951.28
2019-05-07T03:12:33.764Z,951.27
2019-05-07T03:13:33.936Z,951.24
2019-05-07T03:14:33.482Z,951.24
2019-05-07T03:15:33.727Z,951.27
2019-05-07T03:16:43.256Z,951.22
2019-05-07T03:17:34.461Z,951.24
2019-05-07T03:18:33.884Z,951.25
2019-05-07T03:19:33.421Z,951.22
2019-05-07T03:20:33.577Z,951.20
2019-05-07T03:21:33.388Z,951.24
2019-05-07T03:22:33.922Z,951.28
2019-05-07T03:23:34.196Z,951.21
2019-05-07T03:24:34.287Z,951.25
2019-05-07T03:25:33.971Z,951.23
2019-05-07T03:26:34.109Z,951.19
2019-05-07T03:27:34.225Z,951.16
2019-05-07T03:28:33.689Z,951.16
2019-05-07T03:29:33.651Z,951.15
2019-05-07T03:30:35.964Z,951.20
2019-05-07T03:31:36.311Z,951.18
2019-05-07T03:32:38.372Z,951.20
2019-05-07T03:33:36.647Z,951.19
2019-05-07T03:34:36.822Z,951.18
2019-05-07T03:35:37.063Z,951.17
2019-05-07T03:36:35.458Z,951.20
2019-05-07T03:37:36.377Z,951.24
2019-05-07T03:38:33.690Z,951.20
2019-05-07T03:39:33.838Z,951.20
2019-05-07T03:40:33.186Z,951.21
2019-05-07T03:41:33.415Z,951.19
2019-05-07T03:42:33.768Z,951.18
2019-05-07T03:43:33.149Z,951.22
2019-05-07T03:44:33.839Z,951.23
2019-05-07T03:45:33.591Z,951.17
2019-05-07T03:46:33.685Z,951.19
2019-05-07T03:47:33.351Z,951.24
2019-05-07T03:48:33.501Z,951.23
2019-05-07T03:49:34.162Z,951.21
2019-05-07T03:50:33.788Z,951.23
2019-05-07T03:51:33.079Z,951.26
2019-05-07T03:52:33.676Z,951.21
2019-05-07T03:53:33.823Z,951.22
2019-05-07T03:54:34.010Z,951.22
2019-05-07T03:55:33.393Z,951.22
2019-05-07T03:56:33.121Z,951.24
2019-05-07T03:57:33.577Z,951.26
2019-05-07T03:58:33.917Z,951.28
2019-05-07T03:59:34.299Z,951.27
2019-05-07T04:00:33.440Z,951.32
2019-05-07T04:01:33.548Z,951.30
2019-05-07T04:02:33.401Z,951.27
2019-05-07T04:03:34.115Z,951.30
2019-05-07T04:04:33.386Z,951.26
2019-05-07T04:05:34.170Z,951.29
2019-05-07T04:06:33.310Z,951.32
2019-05-07T04:07:33.623Z,951.34
2019-05-07T04:08:33.612Z,951.35
2019-05-07T04:09:33.486Z,951.35
2019-05-07T04:10:33.734Z,951.38
2019-05-07T04:11:33.684Z,951.32
2019-05-07T04:12:34.272Z,951.31
2019-05-07T04:13:33.616Z,951.26
2019-05-07T04:14:34.391Z,951.31
2019-05-07T04:15:33.211Z,951.33
2019-05-07T04:16:33.322Z,951.33
2019-05-07T04:17:33.812Z,951.39
2019-05-07T04:18:33.197Z,951.32
2019-05-07T04:19:33.113Z,951.33
2019-05-07T04:20:33.567Z,951.33
2019-05-07T04:21:34.455Z,951.37
2019-05-07T04:22:34.553Z,951.39
2019-05-07T04:23:34.124Z,951.42
2019-05-07T04:24:33.458Z,951.44
2019-05-07T04:25:34.679Z,951.36
2019-05-07T04:26:33.942Z,951.40
2019-05-07T04:27:33.385Z,951.40
2019-05-07T04:28:33.523Z,951.42
2019-05-07T04:29:35.125Z,951.42
2019-05-07T04:30:33.144Z,951.42
2019-05-07T04:31:34.200Z,951.41
2019-05-07T04:32:33.433Z,951.43
2019-05-07T04:33:33.525Z,951.40
2019-05-07T04:34:33.711Z,951.42
2019-05-07T04:35:33.505Z,951.47
2019-05-07T04:36:34.187Z,951.37
2019-05-07T04:37:33.183Z,951.40
2019-05-07T04:38:33.395Z,951.38
2019-05-07T04:39:33.487Z,951.41
2019-05-07T04:40:33.830Z,951.41
2019-05-07T04:41:33.083Z,951.42
2019-05-07T04:42:33.382Z,951.40
2019-05-07T04:43:33.603Z,951.39
2019-05-07T04:44:33.231Z,951.42
2019-05-07T04:45:33.858Z,951.44
2019-05-07T04:46:33.395Z,951.44
2019-05-07T04:47:41.541Z,951.45
2019-05-07T04:48:34.159Z,951.46
2019-05-07T04:49:33.173Z,951.49
2019-05-07T04:50:42.079Z,951.49
2019-05-07T04:51:33.663Z,951.50
2019-05-07T04:52:33.617Z,951.50
2019-05-07T04:53:32.917Z,951.51
2019-05-07T04:54:32.921Z,951.53
2019-05-07T04:55:33.436Z,951.58
2019-05-07T04:56:33.598Z,951.55
2019-05-07T04:57:32.980Z,951.56
2019-05-07T04:58:33.866Z,951.49
2019-05-07T04:59:32.998Z,951.50
2019-05-07T05:00:33.553Z,951.51
2019-05-07T05:01:32.938Z,951.50
2019-05-07T05:02:32.597Z,951.45
2019-05-07T05:03:34.626Z,951.46
2019-05-07T05:04:34.931Z,951.48
2019-05-07T05:05:32.960Z,951.53
2019-05-07T05:06:32.941Z,951.54
2019-05-07T05:07:33.493Z,951.51
2019-05-07T05:08:32.696Z,951.57
2019-05-07T05:09:32.908Z,951.56
2019-05-07T05:10:33.720Z,951.54
2019-05-07T05:11:33.626Z,951.55
2019-05-07T05:12:32.748Z,951.54
2019-05-07T05:13:32.959Z,951.55
2019-05-07T05:14:33.873Z,951.56
2019-05-07T05:15:32.253Z,951.49
2019-05-07T05:16:32.727Z,951.53
2019-05-07T05:17:32.183Z,951.59
2019-05-07T05:18:33.006Z,951.56
2019-05-07T05:19:32.401Z,951.62
2019-05-07T05:20:33.624Z,951.53
2019-05-07T05:21:32.322Z,951.54
2019-05-07T05:22:32.038Z,951.55
2019-05-07T05:23:32.334Z,951.56
2019-05-07T05:24:32.952Z,951.60
2019-05-07T05:25:32.351Z,951.57
2019-05-07T05:26:32.596Z,951.64
2019-05-07T05:27:32.677Z,951.59
2019-05-07T05:28:32.425Z,951.62
2019-05-07T05:29:32.348Z,951.65
2019-05-07T05:30:32.678Z,951.66
2019-05-07T05:31:33.075Z,951.66
2019-05-07T05:32:32.479Z,951.64
2019-05-07T05:33:32.457Z,951.66
2019-05-07T05:34:32.907Z,951.61
2019-05-07T05:35:32.193Z,951.69
2019-05-07T05:36:32.977Z,951.67
2019-05-07T05:37:32.194Z,951.66
2019-05-07T05:38:32.865Z,951.70
2019-05-07T05:39:32.126Z,951.66
2019-05-07T05:40:32.059Z,951.68
2019-05-07T05:41:33.800Z,951.70
2019-05-07T05:42:33.013Z,951.68
2019-05-07T05:43:32.087Z,951.73
2019-05-07T05:44:32.171Z,951.72
2019-05-07T05:45:33.489Z,951.70
2019-05-07T05:46:32.016Z,951.77
2019-05-07T05:47:33.010Z,951.74
2019-05-07T05:48:33.290Z,951.68
2019-05-07T05:49:32.273Z,951.69
2019-05-07T05:50:33.136Z,951.71
2019-05-07T05:51:32.324Z,951.67
2019-05-07T05:52:32.853Z,951.71
2019-05-07T05:53:32.717Z,951.67
2019-05-07T05:54:31.951Z,951.68
2019-05-07T05:55:32.202Z,951.66
2019-05-07T05:56:32.399Z,951.68
2019-05-07T05:57:32.267Z,951.66
2019-05-07T05:58:32.531Z,951.71
2019-05-07T05:59:46.891Z,951.70
2019-05-07T06:00:32.851Z,951.69
2019-05-07T06:01:32.139Z,951.67
2019-05-07T06:02:32.371Z,951.71
2019-05-07T06:03:32.205Z,951.76
2019-05-07T06:04:32.863Z,951.73
2019-05-07T06:05:34.392Z,951.75
2019-05-07T06:06:32.696Z,951.71
2019-05-07T06:07:31.991Z,951.72
2019-05-07T06:08:32.529Z,951.73
2019-05-07T06:09:32.794Z,951.74
2019-05-07T06:10:33.032Z,951.74
2019-05-07T06:11:32.192Z,951.73
2019-05-07T06:12:32.803Z,951.74
2019-05-07T06:13:32.343Z,951.75
2019-05-07T06:14:33.013Z,951.77
2019-05-07T06:15:32.729Z,951.71
2019-05-07T06:16:32.883Z,951.70
2019-05-07T06:17:32.113Z,951.72
2019-05-07T06:18:32.735Z,951.73
2019-05-07T06:19:32.780Z,951.79
2019-05-07T06:20:32.114Z,951.77
2019-05-07T06:21:32.305Z,951.79
2019-05-07T06:22:33.048Z,951.74
2019-05-07T06:23:32.951Z,951.85
2019-05-07T06:24:31.844Z,951.86
2019-05-07T06:25:33.445Z,951.79
2019-05-07T06:26:31.889Z,951.81
2019-05-07T06:27:32.492Z,951.80
2019-05-07T06:28:33.014Z,951.82
2019-05-07T06:29:33.011Z,951.83
2019-05-07T06:30:33.713Z,951.82
2019-05-07T06:31:32.674Z,951.82
2019-05-07T06:32:32.033Z,951.83
2019-05-07T06:33:32.435Z,951.85
2019-05-07T06:34:31.218Z,951.91
2019-05-07T06:35:32.430Z,951.89
2019-05-07T06:36:32.876Z,951.86
2019-05-07T06:37:32.169Z,951.81
2019-05-07T06:38:32.104Z,951.83
2019-05-07T06:39:32.775Z,951.85
2019-05-07T06:40:32.158Z,951.89
2019-05-07T06:41:32.251Z,951.85
2019-05-07T06:42:33.147Z,951.85
2019-05-07T06:43:32.522Z,951.85
2019-05-07T06:44:31.986Z,951.91
2019-05-07T06:45:34.735Z,951.92
2019-05-07T06:46:32.316Z,951.89
2019-05-07T06:47:31.931Z,951.86
2019-05-07T06:48:41.336Z,951.89
2019-05-07T06:49:32.517Z,951.91
2019-05-07T06:50:32.750Z,951.90
2019-05-07T06:51:32.795Z,951.90
2019-05-07T06:52:31.994Z,951.92
2019-05-07T06:53:33.369Z,951.93
2019-05-07T06:54:32.100Z,951.97
2019-05-07T06:55:32.393Z,951.93
2019-05-07T06:56:32.546Z,951.96
2019-05-07T06:57:32.967Z,951.92
2019-05-07T06:58:32.703Z,951.94
2019-05-07T06:59:34.291Z,951.93
2019-05-07T07:00:31.896Z,951.95
2019-05-07T07:01:32.324Z,951.95
2019-05-07T07:02:32.834Z,951.95
2019-05-07T07:03:32.742Z,951.98
2019-05-07T07:04:32.590Z,951.98
2019-05-07T07:05:32.849Z,951.97
2019-05-07T07:06:32.226Z,952.00
2019-05-07T07:07:34.727Z,951.94
2019-05-07T07:08:32.547Z,951.99
2019-05-07T07:09:32.784Z,951.92
2019-05-07T07:10:32.268Z,951.98
2019-05-07T07:11:31.908Z,951.97
2019-05-07T07:12:32.936Z,951.97
2019-05-07T07:13:32.178Z,951.93
2019-05-07T07:14:32.969Z,951.99
2019-05-07T07:15:32.051Z,951.90
2019-05-07T07:16:32.594Z,951.96
2019-05-07T07:17:32.597Z,951.93
2019-05-07T07:18:32.371Z,951.94
2019-05-07T07:19:32.180Z,951.95
2019-05-07T07:20:32.637Z,951.93
2019-05-07T07:21:32.666Z,951.91
2019-05-07T07:22:31.920Z,951.96
2019-05-07T07:23:32.363Z,951.95
2019-05-07T07:24:32.763Z,952.02
2019-05-07T07:25:32.546Z,952.02
2019-05-07T07:26:32.713Z,951.93
2019-05-07T07:27:32.203Z,951.94
2019-05-07T07:28:32.716Z,951.96
2019-05-07T07:29:32.466Z,951.98
2019-05-07T07:30:32.559Z,951.91
2019-05-07T07:31:31.872Z,951.86
2019-05-07T07:32:31.757Z,951.87
2019-05-07T07:33:31.997Z,951.89
2019-05-07T07:34:33.060Z,951.93
2019-05-07T07:35:32.149Z,951.91
2019-05-07T07:36:32.014Z,951.86
2019-05-07T07:37:31.987Z,951.86
2019-05-07T07:38:32.690Z,951.90
2019-05-07T07:39:32.275Z,951.86
2019-05-07T07:40:32.615Z,951.87
2019-05-07T07:41:32.526Z,951.94
2019-05-07T07:42:31.982Z,951.87
2019-05-07T07:43:32.382Z,951.91
2019-05-07T07:44:30.412Z,951.91
2019-05-07T07:45:32.449Z,951.88
2019-05-07T07:46:32.840Z,951.91
2019-05-07T07:47:32.759Z,951.87
2019-05-07T07:48:32.053Z,951.85
2019-05-07T07:49:32.322Z,951.90
2019-05-07T07:50:32.371Z,951.87
2019-05-07T07:51:38.670Z,951.90
2019-05-07T07:52:32.403Z,951.91
2019-05-07T07:53:33.150Z,951.91
2019-05-07T07:54:32.066Z,951.96
2019-05-07T07:55:30.297Z,951.96
2019-05-07T07:56:47.569Z,951.86
2019-05-07T07:57:32.432Z,951.87
2019-05-07T07:58:32.202Z,951.91
2019-05-07T07:59:30.246Z,951.88
2019-05-07T08:00:32.789Z,951.89
2019-05-07T08:01:30.225Z,951.90
2019-05-07T08:02:32.220Z,951.93
2019-05-07T08:03:30.255Z,951.91
2019-05-07T08:04:31.984Z,951.90
2019-05-07T08:05:32.424Z,951.92
2019-05-07T08:06:30.158Z,951.92
2019-05-07T08:07:30.146Z,951.94
2019-05-07T08:08:31.964Z,952.00
2019-05-07T08:09:32.313Z,951.97
2019-05-07T08:10:32.397Z,951.95
2019-05-07T08:11:31.954Z,951.94
2019-05-07T08:12:32.344Z,951.89
2019-05-07T08:13:32.346Z,951.86
2019-05-07T08:14:32.310Z,951.93
2019-05-07T08:15:32.843Z,951.93
2019-05-07T08:16:30.049Z,951.95
2019-05-07T08:17:30.042Z,951.95
2019-05-07T08:18:30.122Z,951.94
2019-05-07T08:19:32.522Z,951.99
2019-05-07T08:20:30.030Z,951.94
2019-05-07T08:21:29.997Z,951.93
2019-05-07T08:22:29.988Z,951.89
2019-05-07T08:23:31.973Z,951.89
2019-05-07T08:24:32.046Z,951.89
2019-05-07T08:25:32.033Z,951.81
2019-05-07T08:26:32.196Z,951.81
2019-05-07T08:27:29.976Z,951.83
2019-05-07T08:28:31.941Z,951.75
2019-05-07T08:29:32.296Z,951.73
2019-05-07T08:30:29.888Z,951.75
2019-05-07T08:31:31.954Z,951.71
2019-05-07T08:32:29.882Z,951.68
2019-05-07T08:33:32.104Z,951.66
2019-05-07T08:34:29.867Z,951.64
2019-05-07T08:35:29.841Z,951.67
2019-05-07T08:36:29.839Z,951.69
2019-05-07T08:37:31.658Z,951.66
2019-05-07T08:38:30.790Z,951.71
2019-05-07T08:39:32.012Z,951.69
2019-05-07T08:40:29.778Z,951.66
2019-05-07T08:41:31.786Z,951.63
2019-05-07T08:42:31.916Z,951.63
2019-05-07T08:43:29.746Z,951.66
2019-05-07T08:44:29.793Z,951.71
2019-05-07T08:45:29.735Z,951.68
2019-05-07T08:46:29.788Z,951.69
2019-05-07T08:47:31.797Z,951.71
2019-05-07T08:48:31.959Z,951.74
2019-05-07T08:49:37.065Z,951.67
2019-05-07T08:50:32.579Z,951.64
2019-05-07T08:51:29.653Z,951.68
2019-05-07T08:52:29.647Z,951.61
2019-05-07T08:53:29.632Z,951.57
2019-05-07T08:54:31.966Z,951.61
2019-05-07T08:55:29.639Z,951.62
2019-05-07T08:56:31.763Z,951.60
2019-05-07T08:57:31.706Z,951.61
2019-05-07T08:58:31.612Z,951.59
2019-05-07T08:59:31.739Z,951.57
2019-05-07T09:00:29.559Z,951.61
2019-05-07T09:01:29.545Z,951.58
2019-05-07T09:02:29.539Z,951.59
2019-05-07T09:03:29.549Z,951.55
2019-05-07T09:04:29.497Z,951.62
2019-05-07T09:05:29.535Z,951.51
2019-05-07T09:06:29.504Z,951.50
2019-05-07T09:07:29.462Z,951.53
2019-05-07T09:08:29.455Z,951.55
2019-05-07T09:09:29.512Z,951.58
2019-05-07T09:10:29.468Z,951.62
2019-05-07T09:11:29.451Z,951.57
2019-05-07T09:12:31.697Z,951.56
2019-05-07T09:13:29.397Z,951.54
2019-05-07T09:14:29.392Z,951.57
2019-05-07T09:15:29.376Z,951.61
2019-05-07T09:16:29.365Z,951.64
2019-05-07T09:17:29.423Z,951.60
2019-05-07T09:18:29.361Z,951.61
2019-05-07T09:19:29.326Z,951.62
2019-05-07T09:20:29.332Z,951.60
2019-05-07T09:21:29.315Z,951.59
2019-05-07T09:22:29.308Z,951.59
2019-05-07T09:23:29.294Z,951.58
2019-05-07T09:24:29.310Z,951.59
2019-05-07T09:25:29.282Z,951.60
2019-05-07T09:26:29.249Z,951.59
2019-05-07T09:27:29.275Z,951.60
2019-05-07T09:28:29.231Z,951.60
2019-05-07T09:29:29.218Z,951.57
2019-05-07T09:30:29.213Z,951.57
2019-05-07T09:31:29.182Z,951.58
2019-05-07T09:32:29.183Z,951.58
2019-05-07T09:33:29.185Z,951.59
2019-05-07T09:34:29.161Z,951.55
2019-05-07T09:35:29.144Z,951.58
2019-05-07T09:36:29.137Z,951.54
2019-05-07T09:37:29.184Z,951.51
2019-05-07T09:38:29.126Z,951.54
2019-05-07T09:39:29.113Z,951.58
2019-05-07T09:40:29.107Z,951.51
2019-05-07T09:41:29.088Z,951.50
2019-05-07T09:42:29.069Z,951.53
2019-05-07T09:43:29.071Z,951.51
2019-05-07T09:44:29.095Z,951.47
2019-05-07T09:45:29.032Z,951.44
2019-05-07T09:46:29.021Z,951.49
2019-05-07T09:47:29.029Z,951.56
2019-05-07T09:48:29.006Z,951.51
2019-05-07T09:49:28.987Z,951.46
2019-05-07T09:50:28.990Z,951.50
2019-05-07T09:51:29.030Z,951.47
2019-05-07T09:52:28.983Z,951.51
2019-05-07T09:53:29.000Z,951.55
2019-05-07T09:54:28.929Z,951.60
2019-05-07T09:55:28.986Z,951.56
2019-05-07T09:56:28.910Z,951.60
2019-05-07T09:57:31.599Z,951.63
2019-05-07T09:58:36.636Z,951.62
2019-05-07T09:59:29.919Z,951.55
2019-05-07T10:00:28.860Z,951.60
2019-05-07T10:01:28.865Z,951.60
2019-05-07T10:02:28.841Z,951.63
2019-05-07T10:03:28.822Z,951.59
2019-05-07T10:04:28.829Z,951.58
2019-05-07T10:05:28.822Z,951.58
2019-05-07T10:06:28.849Z,951.61
2019-05-07T10:07:28.825Z,951.59
2019-05-07T10:08:28.763Z,951.58
2019-05-07T10:09:28.771Z,951.56
2019-05-07T10:10:28.752Z,951.52
2019-05-07T10:11:28.736Z,951.54
2019-05-07T10:12:28.745Z,951.54
2019-05-07T10:13:28.738Z,951.53
2019-05-07T10:14:28.738Z,951.57
2019-05-07T10:15:28.687Z,951.52
2019-05-07T10:16:28.676Z,951.57
2019-05-07T10:17:28.701Z,951.51
2019-05-07T10:18:28.659Z,951.54
2019-05-07T10:19:28.660Z,951.64
2019-05-07T10:20:28.643Z,951.58
2019-05-07T10:21:28.674Z,951.56
2019-05-07T10:22:28.629Z,951.59
2019-05-07T10:23:28.660Z,951.58
2019-05-07T10:24:28.607Z,951.48
2019-05-07T10:25:28.581Z,951.55
2019-05-07T10:26:28.579Z,951.53
2019-05-07T10:27:28.552Z,951.54
2019-05-07T10:28:28.581Z,951.51
2019-05-07T10:29:28.536Z,951.53
2019-05-07T10:30:28.561Z,951.61
2019-05-07T10:31:28.512Z,951.50
2019-05-07T10:32:28.489Z,951.50
2019-05-07T10:33:28.525Z,951.51
2019-05-07T10:34:28.507Z,951.52
2019-05-07T10:35:30.953Z,951.46
2019-05-07T10:36:28.452Z,951.51
2019-05-07T10:37:28.440Z,951.50
2019-05-07T10:38:28.439Z,951.49
2019-05-07T10:39:28.416Z,951.52
2019-05-07T10:40:28.449Z,951.46
2019-05-07T10:41:28.410Z,951.50
2019-05-07T10:42:28.387Z,951.46
2019-05-07T10:43:28.369Z,951.47
2019-05-07T10:44:28.366Z,951.50
2019-05-07T10:45:28.358Z,951.56
2019-05-07T10:46:28.333Z,951.56
2019-05-07T10:47:28.368Z,951.48
2019-05-07T10:48:28.315Z,951.51
2019-05-07T10:49:28.308Z,951.46
2019-05-07T10:50:37.964Z,951.47
2019-05-07T10:51:29.308Z,951.46
2019-05-07T10:52:28.272Z,951.38
2019-05-07T10:53:28.267Z,951.43
2019-05-07T10:54:28.244Z,951.42
2019-05-07T10:55:28.268Z,951.40
2019-05-07T10:56:28.231Z,951.40
2019-05-07T10:57:28.211Z,951.46
2019-05-07T10:58:28.274Z,951.50
2019-05-07T10:59:28.215Z,951.45
2019-05-07T11:00:28.193Z,951.47
2019-05-07T11:01:28.177Z,951.47
2019-05-07T11:02:28.208Z,951.47
2019-05-07T11:03:28.157Z,951.43
2019-05-07T11:04:39.315Z,951.41
2019-05-07T11:05:29.126Z,951.35
2019-05-07T11:06:28.175Z,951.35
2019-05-07T11:07:28.094Z,951.34
2019-05-07T11:08:28.091Z,951.43
2019-05-07T11:09:28.083Z,951.46
2019-05-07T11:10:28.058Z,951.48
2019-05-07T11:11:28.046Z,951.46
2019-05-07T11:12:28.064Z,951.40
2019-05-07T11:13:28.021Z,951.35
2019-05-07T11:14:28.034Z,951.38
2019-05-07T11:15:28.004Z,951.35
2019-05-07T11:16:28.022Z,951.33
2019-05-07T11:17:27.977Z,951.36
2019-05-07T11:18:27.982Z,951.35
2019-05-07T11:19:27.992Z,951.35
2019-05-07T11:20:27.968Z,951.30
2019-05-07T11:21:27.940Z,951.28
2019-05-07T11:22:27.936Z,951.31
2019-05-07T11:23:27.950Z,951.31
2019-05-07T11:24:27.910Z,951.28
2019-05-07T11:25:27.936Z,951.26
2019-05-07T11:26:27.887Z,951.33
2019-05-07T11:27:27.871Z,951.30
2019-05-07T11:28:27.880Z,951.31
2019-05-07T11:29:27.862Z,951.29
2019-05-07T11:30:27.838Z,951.25
2019-05-07T11:31:27.827Z,951.25
2019-05-07T11:32:27.824Z,951.33
2019-05-07T11:33:27.812Z,951.33
2019-05-07T11:34:27.825Z,951.27
2019-05-07T11:35:27.813Z,951.25
2019-05-07T11:36:27.778Z,951.19
2019-05-07T11:37:27.825Z,951.24
2019-05-07T11:38:27.766Z,951.26
2019-05-07T11:39:27.749Z,951.24
2019-05-07T11:40:27.754Z,951.25
2019-05-07T11:41:27.740Z,951.25
2019-05-07T11:42:27.704Z,951.24
2019-05-07T11:43:27.716Z,951.18
2019-05-07T11:44:27.696Z,951.22
2019-05-07T11:45:27.693Z,951.17
2019-05-07T11:46:27.671Z,951.21
2019-05-07T11:47:27.683Z,951.21
2019-05-07T11:48:27.649Z,951.17
2019-05-07T11:49:27.637Z,951.22
2019-05-07T11:50:27.694Z,951.21
2019-05-07T11:51:27.605Z,951.19
2019-05-07T11:52:27.599Z,951.19
2019-05-07T11:53:27.587Z,951.21
2019-05-07T11:54:27.699Z,951.20
2019-05-07T11:55:27.599Z,951.15
2019-05-07T11:56:27.567Z,951.13
2019-05-07T11:57:27.543Z,951.10
2019-05-07T11:58:27.528Z,951.10
2019-05-07T11:59:27.521Z,951.15
2019-05-07T12:00:27.531Z,951.15
2019-05-07T12:01:40.217Z,951.14
2019-05-07T12:02:28.483Z,951.18
2019-05-07T12:03:27.475Z,951.17
2019-05-07T12:04:27.999Z,951.13
2019-05-07T12:05:27.456Z,951.10
2019-05-07T12:06:27.454Z,951.17
2019-05-07T12:07:27.425Z,951.17
2019-05-07T12:08:41.007Z,951.19
2019-05-07T12:09:28.404Z,951.18
2019-05-07T12:10:27.425Z,951.17
2019-05-07T12:11:27.370Z,951.16
2019-05-07T12:12:27.415Z,951.16
2019-05-07T12:13:27.349Z,951.18
2019-05-07T12:14:31.788Z,951.12
2019-05-07T12:15:28.381Z,951.15
2019-05-07T12:16:27.332Z,951.14
2019-05-07T12:17:27.303Z,951.25
2019-05-07T12:18:27.308Z,951.24
2019-05-07T12:19:27.279Z,951.20
2019-05-07T12:20:27.387Z,951.19
2019-05-07T12:21:27.268Z,951.18
2019-05-07T12:22:27.254Z,951.17
2019-05-07T12:23:27.258Z,951.21
2019-05-07T12:24:27.227Z,951.22
2019-05-07T12:25:27.216Z,951.21
2019-05-07T12:26:27.199Z,951.18
2019-05-07T12:27:27.188Z,951.13
2019-05-07T12:28:27.201Z,951.16